Kissimmee Gateway Airport Orlando US
ICAO: KISM
IATA: ISM
Category: Medium
Scheduled Services: No

Elevation: 82 ft
TransAlt. 18000 ft.

Airport Communications:
ORLANDO APP/DEP:119.4
AWOS 3:128.775
ORLANDO CLNC DEL:119.95
CTAF:124.45
GND:121.7
TWR:124.45
UNICOM:122.95

KISM Zoom In..

If you have problems with the map follow the link
https://www.worldairports.se/pages/airport.php?
ICAO=KISM

Runways:

(A) RW 06 length 5001 ft width 150 ft
---- / hdg 63

(B) RW 15 length 6001 ft width 100 ft
ILS 109.75 / hdg 153

(C) RW 24 length 5001 ft width 150 ft
---- / hdg 243

(D) RW 33 length 6001 ft width 100 ft
---- / hdg 333

Location; KISM
Day. 12 / Time. 06.56 Zulu
* Altimeter: 30.26
* Temperature: 19° c. 66.2°f.
* Wind from: 030° Speed 07 kn.
Dewpoint: 18° c.
Visibility: 10 Statute Miles.
Clouds: Few 1000 ft.
Clouds: Overcast 2000 ft.

KISM 120656Z AUTO 03007KT 10SM FEW010 OVC020 19/18 A3026 RMK AO2 SLP248 T01940178


Wind From 030°
Speed 07 kn.

 
 
jpsmedia worldairports.se 2019   terms of use